Time;durP1;ratioP1;P1;durP2;ratioP2;P2;SDS_P1;SDS_P2;PMS_P1;PMS_P2;Temp;Humidity;BMP_temperature;BMP_pressure;BME280_temperature;BME280_humidity;BME280_pressure;Samples;Min_cycle;Max_cycle;Signal;HPM_P1;HPM_P2
2023/11/13 00:00:38;;;;;;;10.80;8.40;;;;;;;-147.86;100.00;48745.03;105591;1258;60563;-43
2023/11/13 00:03:07;;;;;;;17.50;8.90;;;;;;;-147.86;100.00;48757.97;105580;1257;60438;-44
2023/11/13 00:05:35;;;;;;;10.70;8.10;;;;;;;-147.86;100.00;48747.38;105635;1256;72577;-42
2023/11/13 00:08:06;;;;;;;11.60;8.30;;;;;;;-147.86;100.00;48743.46;105577;1261;64776;-46
2023/11/13 00:10:34;;;;;;;10.80;7.60;;;;;;;-147.86;100.00;48755.62;105556;1257;72599;-45
2023/11/13 00:13:02;;;;;;;9.60;8.10;;;;;;;-147.86;100.00;48754.44;105573;1257;60530;-45
2023/11/13 00:15:29;;;;;;;16.10;9.50;;;;;;;-147.86;100.00;48748.55;105592;1260;60440;-46
2023/11/13 00:17:57;;;;;;;10.70;8.30;;;;;;;-147.86;100.00;48741.89;105566;1256;72605;-43
2023/11/13 00:20:25;;;;;;;12.30;8.50;;;;;;;-147.86;100.00;48743.07;105554;1255;63946;-45
2023/11/13 00:22:53;;;;;;;13.10;7.80;;;;;;;-147.86;100.00;48742.28;105565;1257;71423;-42
2023/11/13 00:25:21;;;;;;;11.10;8.90;;;;;;;-147.86;100.00;48758.36;105584;1260;60639;-42
2023/11/13 00:27:49;;;;;;;12.80;8.50;;;;;;;-147.86;100.00;48755.62;105574;1256;60336;-44
2023/11/13 00:30:16;;;;;;;10.10;7.40;;;;;;;-147.86;100.00;48769.34;105610;1260;73828;-45
2023/11/13 00:32:45;;;;;;;15.00;8.30;;;;;;;-147.86;100.00;48768.56;105553;1255;64310;-43
2023/11/13 00:35:12;;;;;;;14.80;8.80;;;;;;;-147.86;100.00;48772.87;105603;1261;72628;-45
2023/11/13 00:37:41;;;;;;;14.20;9.30;;;;;;;-147.86;100.00;48767.38;105564;1257;60412;-43
2023/11/13 00:40:10;;;;;;;12.40;8.90;;;;;;;-147.86;100.00;48788.95;105532;1258;60396;-46
2023/11/13 00:42:37;;;;;;;13.20;9.10;;;;;;;-147.86;100.00;48810.91;105569;1257;73141;-43
2023/11/13 00:45:06;;;;;;;11.70;8.20;;;;;;;-147.86;100.00;48803.85;105528;1256;63268;-43
2023/11/13 00:47:34;;;;;;;16.20;8.40;;;;;;;-147.86;100.00;48812.48;105905;1256;72705;-44
2023/11/13 00:50:02;;;;;;;13.20;9.10;;;;;;;-147.86;100.00;48808.95;105852;1254;60450;-45
2023/11/13 00:52:30;;;;;;;11.10;8.60;;;;;;;-147.86;100.00;48814.05;105889;1254;60411;-43
2023/11/13 00:54:57;;;;;;;11.80;8.50;;;;;;;-147.86;100.00;48839.14;105915;1257;73840;-45
2023/11/13 00:57:25;;;;;;;9.40;8.00;;;;;;;-147.86;100.00;48835.22;105881;1257;63925;-44
2023/11/13 00:59:54;;;;;;;10.10;8.50;;;;;;;-147.86;100.00;48828.55;105680;1258;71019;-43
2023/11/13 01:02:24;;;;;;;13.50;9.50;;;;;;;-147.86;100.00;48849.34;105915;1253;60464;-46
2023/11/13 01:04:52;;;;;;;13.90;9.10;;;;;;;-147.86;100.00;48855.22;105914;1252;60435;-42
2023/11/13 01:07:23;;;;;;;13.90;8.60;;;;;;;-147.86;100.00;48881.49;105862;1253;73172;-46
2023/11/13 01:09:51;;;;;;;12.40;8.30;;;;;;;-147.86;100.00;48865.80;105884;1254;65269;-44
2023/11/13 01:12:20;;;;;;;14.80;8.60;;;;;;;-147.86;100.00;48873.26;105875;1253;72572;-43
2023/11/13 01:14:51;;;;;;;14.20;8.80;;;;;;;-147.86;100.00;48866.98;105931;1257;60425;-46
2023/11/13 01:17:19;;;;;;;12.60;9.20;;;;;;;-147.86;100.00;48895.22;105919;1257;60434;-46
2023/11/13 01:19:47;;;;;;;11.30;8.30;;;;;;;-147.86;100.00;48882.67;105850;1251;72758;-45
2023/11/13 01:22:15;;;;;;;15.50;8.80;;;;;;;-147.86;100.00;48894.82;105825;1255;63590;-43
2023/11/13 01:24:44;;;;;;;16.20;9.60;;;;;;;-147.86;100.00;48901.10;105841;1257;72571;-46
2023/11/13 01:27:12;;;;;;;12.70;8.90;;;;;;;-147.86;100.00;48902.67;105827;1254;60527;-44
2023/11/13 01:29:40;;;;;;;12.50;8.80;;;;;;;-147.86;100.00;48903.45;105863;1257;60398;-44
2023/11/13 01:32:08;;;;;;;12.50;8.70;;;;;;;-147.86;100.00;48908.16;105663;1253;72626;-44
2023/11/13 01:34:36;;;;;;;12.30;8.50;;;;;;;-147.86;100.00;48915.61;105881;1253;63561;-44
2023/11/13 01:37:04;;;;;;;11.80;8.90;;;;;;;-147.86;100.00;48923.06;105655;1253;70403;-45
2023/11/13 01:39:32;;;;;;;15.00;9.70;;;;;;;-147.86;100.00;48925.02;105886;1256;60547;-43
2023/11/13 01:42:01;;;;;;;13.90;9.50;;;;;;;-147.86;100.00;48928.16;105910;1252;60561;-46
2023/11/13 01:44:28;;;;;;;12.30;8.90;;;;;;;-147.86;100.00;48943.05;105641;1252;72618;-43
2023/11/13 01:46:57;;;;;;;12.30;9.00;;;;;;;-147.86;100.00;48936.00;105846;1253;63910;-43
2023/11/13 01:49:25;;;;;;;14.80;9.80;;;;;;;-147.86;100.00;48963.45;105786;1253;72594;-43
2023/11/13 01:51:52;;;;;;;19.20;9.50;;;;;;;-147.86;100.00;48974.82;105892;1254;60531;-44
2023/11/13 01:54:20;;;;;;;16.30;9.30;;;;;;;-147.86;100.00;48987.37;105870;1253;60621;-42
2023/11/13 01:56:48;;;;;;;18.30;9.40;;;;;;;-147.86;100.00;48984.63;105706;1254;73848;-43
2023/11/13 01:59:16;;;;;;;15.80;8.70;;;;;;;-147.86;100.00;48988.16;105659;1261;64001;-44
2023/11/13 02:01:44;;;;;;;13.90;9.40;;;;;;;-147.86;100.00;49010.51;105666;1254;72632;-45
2023/11/13 02:04:11;;;;;;;20.40;10.40;;;;;;;-147.86;100.00;49025.80;105642;1258;60789;-45
2023/11/13 02:06:39;;;;;;;17.80;10.10;;;;;;;-147.86;100.00;49017.18;105705;1258;60400;-43
2023/11/13 02:09:10;;;;;;;13.60;9.20;;;;;;;-147.86;100.00;49034.04;105610;1253;72930;-46
2023/11/13 02:11:38;;;;;;;15.90;9.50;;;;;;;-147.86;100.00;49031.29;105706;1253;64027;-47
2023/11/13 02:14:05;;;;;;;12.40;9.00;;;;;;;-147.86;100.00;49050.90;105471;1254;72700;-46
2023/11/13 02:16:34;;;;;;;16.80;10.30;;;;;;;-147.86;100.00;49072.47;105357;1257;60493;-44
2023/11/13 02:19:03;;;;;;;19.00;10.50;;;;;;;-147.86;100.00;49072.86;105288;1258;60332;-45
2023/11/13 02:21:32;;;;;;;20.40;10.40;;;;;;;-147.86;100.00;49074.82;105421;1254;73440;-45
2023/11/13 02:24:01;;;;;;;15.30;9.60;;;;;;;-147.86;100.00;49099.92;105594;1253;65269;-43
2023/11/13 02:26:29;;;;;;;14.10;8.60;;;;;;;-147.86;100.00;49125.41;105652;1254;71431;-44
2023/11/13 02:28:58;;;;;;;17.70;10.00;;;;;;;-147.86;100.00;49124.24;105734;1253;60413;-45
2023/11/13 02:31:26;;;;;;;14.00;9.90;;;;;;;-147.86;100.00;49132.87;105637;1254;60417;-47
2023/11/13 02:33:54;;;;;;;12.70;9.30;;;;;;;-147.86;100.00;49123.45;105712;1253;72675;-45
2023/11/13 02:36:22;;;;;;;14.50;9.50;;;;;;;-147.86;100.00;49149.34;105669;1258;63962;-44
2023/11/13 02:38:49;;;;;;;14.90;9.40;;;;;;;-147.86;100.00;49146.59;105656;1256;71346;-46
2023/11/13 02:41:19;;;;;;;13.50;10.00;;;;;;;-147.86;100.00;49141.88;105662;1258;60526;-45
2023/11/13 02:43:47;;;;;;;15.10;9.90;;;;;;;-147.86;100.00;49145.02;105683;1253;60365;-46
2023/11/13 02:46:15;;;;;;;14.10;9.40;;;;;;;-147.86;100.00;49151.30;105654;1253;73891;-47
2023/11/13 02:48:43;;;;;;;14.40;9.50;;;;;;;-147.86;100.00;49145.02;105670;1253;63954;-44
2023/11/13 02:51:10;;;;;;;15.50;9.20;;;;;;;-147.86;100.00;49143.45;105653;1254;70535;-48
2023/11/13 02:53:38;;;;;;;15.30;9.60;;;;;;;-147.86;100.00;49153.26;105693;1254;61100;-45
2023/11/13 02:56:06;;;;;;;19.30;10.30;;;;;;;-147.86;100.00;49143.05;105785;1257;60488;-45
2023/11/13 02:58:34;;;;;;;17.20;10.80;;;;;;;-147.86;100.00;49123.84;105860;1253;71860;-45
2023/11/13 03:01:02;;;;;;;21.10;9.60;;;;;;;-147.86;100.00;49130.90;105724;1254;63933;-46
2023/11/13 03:03:30;;;;;;;12.40;9.20;;;;;;;-147.86;100.00;49113.26;105881;1253;71449;-47
2023/11/13 03:05:57;;;;;;;14.90;9.20;;;;;;;-147.86;100.00;49139.93;105713;1254;60531;-46
2023/11/13 03:08:25;;;;;;;14.20;9.50;;;;;;;-147.86;100.00;49139.53;105884;1257;60492;-46
2023/11/13 03:10:53;;;;;;;14.10;9.50;;;;;;;-147.86;100.00;49140.71;105917;1253;72731;-46
2023/11/13 03:13:23;;;;;;;14.00;9.50;;;;;;;-147.86;100.00;49150.12;105711;1253;65290;-44
2023/11/13 03:15:50;;;;;;;19.00;10.50;;;;;;;-147.86;100.00;49132.86;105845;1256;71402;-47
2023/11/13 03:18:18;;;;;;;15.50;9.70;;;;;;;-147.86;100.00;49120.31;105788;1257;60816;-46
2023/11/13 03:20:46;;;;;;;13.00;8.90;;;;;;;-147.86;100.00;49136.39;105866;1256;60362;-45
2023/11/13 03:23:14;;;;;;;14.20;9.60;;;;;;;-147.86;100.00;49137.18;105904;1258;73819;-44
2023/11/13 03:25:42;;;;;;;14.80;9.80;;;;;;;-147.86;100.00;49121.49;105794;1258;62948;-46
2023/11/13 03:28:10;;;;;;;13.70;9.40;;;;;;;-147.86;100.00;49122.66;105845;1254;72697;-46
2023/11/13 03:30:38;;;;;;;20.50;9.40;;;;;;;-147.86;100.00;49131.29;105691;1253;60451;-47
2023/11/13 03:33:06;;;;;;;15.10;9.60;;;;;;;-147.86;100.00;49123.84;105885;1251;60338;-47
2023/11/13 03:35:34;;;;;;;14.90;10.00;;;;;;;-147.86;100.00;49140.71;105768;1252;73794;-45
2023/11/13 03:38:01;;;;;;;15.70;9.60;;;;;;;-147.86;100.00;49137.57;105345;1253;63386;-46
2023/11/13 03:40:31;;;;;;;17.60;9.70;;;;;;;-147.86;100.00;49120.71;105826;1253;72701;-44
2023/11/13 03:42:59;;;;;;;13.00;9.50;;;;;;;-147.86;100.00;49110.12;105742;1257;60534;-50
2023/11/13 03:45:27;;;;;;;19.90;9.90;;;;;;;-147.86;100.00;49087.77;105902;1253;60426;-45
2023/11/13 03:47:54;;;;;;;13.70;10.00;;;;;;;-147.86;100.00;49081.10;105826;1253;72672;-47
2023/11/13 03:50:22;;;;;;;16.00;10.00;;;;;;;-147.86;100.00;49061.88;105819;1254;63916;-47
2023/11/13 03:52:50;;;;;;;18.30;10.00;;;;;;;-147.86;100.00;49082.67;105838;1253;71931;-47
2023/11/13 03:55:17;;;;;;;13.80;9.00;;;;;;;-147.86;100.00;49081.88;105851;1257;60534;-45
2023/11/13 03:57:46;;;;;;;14.50;9.60;;;;;;;-147.86;100.00;49086.98;105864;1257;60475;-46
2023/11/13 04:00:18;;;;;;;15.70;10.60;;;;;;;-147.86;100.00;49081.49;105901;1253;72600;-46
2023/11/13 04:02:49;;;;;;;19.80;10.60;;;;;;;-147.86;100.00;49086.98;105870;1253;63350;-47
2023/11/13 04:05:17;;;;;;;15.60;9.80;;;;;;;-147.86;100.00;49082.66;105869;1257;71368;-44
2023/11/13 04:07:45;;;;;;;16.60;9.70;;;;;;;-147.86;100.00;49116.39;105858;1253;60626;-46
2023/11/13 04:10:14;;;;;;;17.50;9.50;;;;;;;-147.86;100.00;49089.33;105687;1252;60496;-44
2023/11/13 04:12:44;;;;;;;15.30;10.50;;;;;;;-147.86;100.00;49127.37;105889;1253;73733;-45
2023/11/13 04:15:11;;;;;;;14.40;9.80;;;;;;;-147.86;100.00;49121.10;105905;1251;65182;-43
2023/11/13 04:17:39;;;;;;;16.50;10.70;;;;;;;-147.86;100.00;49174.04;105909;1253;72640;-47
2023/11/13 04:20:12;;;;;;;15.10;9.60;;;;;;;-147.86;100.00;49156.79;105863;1253;61658;-42
2023/11/13 04:22:41;;;;;;;19.00;10.10;;;;;;;-147.86;100.00;49178.35;105924;1257;60429;-45
2023/11/13 04:25:09;;;;;;;14.90;10.30;;;;;;;-147.86;100.00;49189.34;105913;1251;72578;-46
2023/11/13 04:27:37;;;;;;;22.80;10.90;;;;;;;-147.86;100.00;49207.38;105904;1257;64008;-42
2023/11/13 04:30:07;;;;;;;18.80;10.60;;;;;;;-147.86;100.00;49198.36;105826;1252;71444;-43
2023/11/13 04:32:34;;;;;;;18.20;9.80;;;;;;;-147.86;100.00;49189.34;105941;1256;60828;-46
2023/11/13 04:35:03;;;;;;;16.80;9.80;;;;;;;-147.86;100.00;49169.73;105879;1257;60331;-43
2023/11/13 04:37:30;;;;;;;15.70;10.40;;;;;;;-147.86;100.00;49176.00;105873;1257;73446;-44
2023/11/13 04:40:04;;;;;;;17.60;9.50;;;;;;;-147.86;100.00;49191.29;105854;1254;63895;-45
2023/11/13 04:42:33;;;;;;;14.30;9.80;;;;;;;-147.86;100.00;49196.79;105851;1257;71411;-44
2023/11/13 04:45:01;;;;;;;16.80;9.70;;;;;;;-147.86;100.00;49192.87;105864;1253;61680;-46
2023/11/13 04:47:29;;;;;;;13.80;9.00;;;;;;;-147.86;100.00;49193.65;105854;1257;60345;-46
2023/11/13 04:49:58;;;;;;;12.90;8.70;;;;;;;-147.86;100.00;49199.14;105925;1253;72754;-44
2023/11/13 04:52:26;;;;;;;15.70;10.20;;;;;;;-147.86;100.00;49204.63;105867;1253;65231;-44
2023/11/13 04:54:54;;;;;;;14.40;9.00;;;;;;;-147.86;100.00;49219.14;105863;1253;71436;-43
2023/11/13 04:57:22;;;;;;;17.10;9.30;;;;;;;-147.86;100.00;49212.47;105817;1253;60537;-47
2023/11/13 04:59:50;;;;;;;19.40;9.00;;;;;;;-147.86;100.00;49209.34;105895;1256;60422;-46
2023/11/13 05:02:18;;;;;;;13.00;8.40;;;;;;;-147.86;100.00;49200.71;105838;1253;72619;-45
2023/11/13 05:04:47;;;;;;;12.50;8.00;;;;;;;-147.86;100.00;49184.23;105875;1252;65207;-46
2023/11/13 05:07:15;;;;;;;14.90;8.70;;;;;;;-147.86;100.00;49176.79;105842;1252;71360;-45
2023/11/13 05:09:43;;;;;;;11.90;7.90;;;;;;;-147.86;100.00;49154.04;105633;1257;318956;-43
2023/11/13 05:14:56;;;;;;;13.20;7.90;;;;;;;-147.86;100.00;48984.24;102745;1294;601499;-43
2023/11/13 05:17:24;;;;;;;11.40;7.60;;;;;;;-147.86;100.00;49059.92;104934;1270;60009;-45
2023/11/13 05:19:52;;;;;;;14.50;7.60;;;;;;;-147.86;100.00;49021.09;104946;1270;59299;-44
2023/11/13 05:22:20;;;;;;;11.30;7.80;;;;;;;-147.86;100.00;48993.26;104864;1270;71269;-45
2023/11/13 05:24:48;;;;;;;10.70;7.30;;;;;;;-147.86;100.00;48972.08;104918;1264;65170;-43
2023/11/13 05:27:16;;;;;;;9.50;7.50;;;;;;;-147.86;100.00;48957.57;105202;1267;70878;-44
2023/11/13 05:29:44;;;;;;;12.10;7.60;;;;;;;-147.86;100.00;48926.20;105149;1264;234085;-44
2023/11/13 05:32:12;;;;;;;11.50;7.20;;;;;;;-147.86;100.00;48936.00;105264;1260;59372;-45
2023/11/13 05:34:40;;;;;;;15.30;8.10;;;;;;;-147.86;100.00;48919.14;105283;1259;72211;-46
2023/11/13 05:37:08;;;;;;;11.80;6.70;;;;;;;-147.86;100.00;48894.04;105259;1264;63907;-47
2023/11/13 05:39:36;;;;;;;18.30;8.20;;;;;;;-147.86;100.00;48868.16;105250;1261;72711;-45
2023/11/13 05:42:04;;;;;;;12.90;8.10;;;;;;;-147.86;100.00;48861.49;105611;1261;61659;-43
2023/11/13 05:44:34;;;;;;;14.10;7.30;;;;;;;-147.86;100.00;48844.63;105639;1269;59606;-45
2023/11/13 05:47:03;;;;;;;11.20;7.40;;;;;;;-147.86;100.00;48821.89;105617;1260;72129;-43
2023/11/13 05:49:31;;;;;;;15.50;8.10;;;;;;;-147.86;100.00;48819.53;105649;1259;63222;-44
2023/11/13 05:51:59;;;;;;;12.20;8.00;;;;;;;-147.86;100.00;48816.79;105584;1258;71402;-45
2023/11/13 05:54:28;;;;;;;10.90;7.20;;;;;;;-147.86;100.00;48810.51;105657;1258;60497;-47
2023/11/13 05:56:56;;;;;;;11.30;7.10;;;;;;;-147.86;100.00;48787.38;105667;1263;59627;-43
2023/11/13 05:59:23;;;;;;;13.60;8.10;;;;;;;-147.86;100.00;48771.30;105593;1257;73023;-46
2023/11/13 06:01:51;;;;;;;16.50;7.80;;;;;;;-147.86;100.00;48774.44;105610;1260;64011;-47
2023/11/13 06:04:19;;;;;;;11.70;7.70;;;;;;;-147.86;100.00;48777.18;105593;1260;72748;-46
2023/11/13 06:06:47;;;;;;;11.30;8.00;;;;;;;-147.86;100.00;48762.29;105664;1257;60419;-43
2023/11/13 06:09:15;;;;;;;13.20;8.40;;;;;;;-147.86;100.00;48730.52;105661;1256;59961;-44
2023/11/13 06:11:45;;;;;;;13.80;8.20;;;;;;;-147.86;100.00;48730.91;105641;1260;73114;-44
2023/11/13 06:14:13;;;;;;;13.70;7.70;;;;;;;-147.86;100.00;48728.56;105596;1261;63914;-45
2023/11/13 06:16:41;;;;;;;12.60;7.70;;;;;;;-147.86;100.00;48733.66;105608;1255;72650;-46
2023/11/13 06:19:09;;;;;;;13.60;7.70;;;;;;;-147.86;100.00;48735.62;105593;1260;60379;-46
2023/11/13 06:21:36;;;;;;;13.90;8.10;;;;;;;-147.86;100.00;48717.19;105651;1257;59978;-47
2023/11/13 06:24:04;;;;;;;16.70;8.70;;;;;;;-147.86;100.00;48725.82;105565;1257;73020;-44
2023/11/13 06:26:32;;;;;;;14.50;7.90;;;;;;;-147.86;100.00;48725.43;105642;1260;64020;-46
2023/11/13 06:29:00;;;;;;;14.70;8.50;;;;;;;-147.86;100.00;48725.03;105572;1260;71439;-43
2023/11/13 06:31:27;;;;;;;14.60;9.20;;;;;;;-147.86;100.00;48692.49;105636;1260;59744;-44
2023/11/13 06:33:55;;;;;;;14.20;8.80;;;;;;;-147.86;100.00;48683.46;105616;1260;60034;-46
2023/11/13 06:36:23;;;;;;;13.70;7.60;;;;;;;-147.86;100.00;48679.15;105596;1256;70760;-46
2023/11/13 06:38:51;;;;;;;12.80;8.20;;;;;;;-147.86;100.00;48679.54;105589;1261;64301;-46
2023/11/13 06:41:19;;;;;;;13.90;8.10;;;;;;;-147.86;100.00;48686.99;105633;1260;71262;-46
2023/11/13 06:43:47;;;;;;;14.30;8.40;;;;;;;-147.86;100.00;48674.45;105582;1256;59739;-45
2023/11/13 06:46:17;;;;;;;13.90;8.30;;;;;;;-147.86;100.00;48696.01;105875;1256;59519;-47
2023/11/13 06:48:45;;;;;;;14.00;8.20;;;;;;;-147.86;100.00;48679.16;105838;1253;71755;-45
2023/11/13 06:51:16;;;;;;;16.10;9.20;;;;;;;-147.86;100.00;48671.31;105853;1255;65279;-44
2023/11/13 06:53:44;;;;;;;15.80;8.90;;;;;;;-147.86;100.00;48667.78;105885;1257;72921;-48
2023/11/13 06:56:12;;;;;;;11.40;8.20;;;;;;;-147.86;100.00;48646.21;105873;1252;61666;-45
2023/11/13 06:58:39;;;;;;;12.80;8.60;;;;;;;-147.86;100.00;48642.29;105838;1257;60140;-44
2023/11/13 07:01:07;;;;;;;11.80;8.20;;;;;;;-147.86;100.00;48645.82;105905;1256;72078;-43
2023/11/13 07:03:38;;;;;;;16.50;9.50;;;;;;;-147.86;100.00;48658.37;105855;1254;63907;-45
2023/11/13 07:06:10;;;;;;;13.60;8.60;;;;;;;-147.86;100.00;48641.12;105884;1253;71397;-45
2023/11/13 07:08:38;;;;;;;14.30;8.30;;;;;;;-147.86;100.00;48627.39;105876;1254;61714;-44
2023/11/13 07:11:07;;;;;;;18.80;8.60;;;;;;;-147.86;100.00;48645.04;105944;1256;60659;-44
2023/11/13 07:13:34;;;;;;;18.10;9.40;;;;;;;-147.86;100.00;48645.04;105914;1254;71882;-45
2023/11/13 07:16:03;;;;;;;19.10;9.10;;;;;;;-147.86;100.00;48637.20;105866;1257;64011;-47
2023/11/13 07:18:32;;;;;;;15.80;8.50;;;;;;;-147.86;100.00;48589.36;105881;1255;71504;-47
2023/11/13 07:21:01;;;;;;;14.50;8.90;;;;;;;-147.86;100.00;48579.56;105883;1254;61676;-45
2023/11/13 07:23:30;;;;;;;14.20;8.60;;;;;;;-147.86;100.00;48594.06;105881;1256;59533;-45
2023/11/13 07:25:58;;;;;;;23.10;9.60;;;;;;;-147.86;100.00;48586.22;105901;1252;72000;-46
2023/11/13 07:28:26;;;;;;;26.40;9.70;;;;;;;-147.86;100.00;48569.75;105895;1253;65717;-45
2023/11/13 07:30:54;;;;;;;39.90;10.60;;;;;;;-147.86;100.00;48567.40;105885;1258;71446;-46
2023/11/13 07:33:23;;;;;;;16.70;9.90;;;;;;;-147.86;100.00;48556.03;105896;1254;60458;-42
2023/11/13 07:35:50;;;;;;;25.30;9.90;;;;;;;-147.86;100.00;48559.56;105837;1253;60002;-45
2023/11/13 07:38:18;;;;;;;25.70;9.40;;;;;;;-147.86;100.00;48563.09;105975;1255;72814;-46
2023/11/13 07:40:47;;;;;;;31.20;9.90;;;;;;;-147.86;100.00;48559.16;105861;1254;64470;-45
2023/11/13 07:43:15;;;;;;;35.90;9.50;;;;;;;-147.86;100.00;48570.93;105862;1254;71255;-45
2023/11/13 07:45:43;;;;;;;24.80;10.60;;;;;;;-147.86;100.00;48594.85;105885;1256;59727;-43
2023/11/13 07:48:11;;;;;;;14.20;9.30;;;;;;;-147.86;100.00;48585.04;105842;1251;59951;-45
2023/11/13 07:50:38;;;;;;;16.00;9.30;;;;;;;-147.86;100.00;48557.60;105877;1251;71808;-45
2023/11/13 07:53:25;;;;;;;;;;;;;;;-147.86;100.00;48562.30;105913;1254;63940;-44
2023/11/13 07:55:55;;;;;;;14.90;9.20;;;;;;;-147.86;100.00;48561.91;105901;1256;71376;-43
2023/11/13 07:58:23;;;;;;;34.10;11.50;;;;;;;-147.86;100.00;48564.66;105784;1252;59739;-45
2023/11/13 08:00:52;;;;;;;35.10;10.10;;;;;;;-147.86;100.00;48536.03;105672;1251;59705;-46
2023/11/13 08:03:21;;;;;;;27.10;10.60;;;;;;;-147.86;100.00;48531.72;105840;1256;72996;-48
2023/11/13 08:05:49;;;;;;;24.70;9.40;;;;;;;-147.86;100.00;48546.62;105872;1253;63945;-50
2023/11/13 08:08:16;;;;;;;29.10;10.20;;;;;;;-147.86;100.00;48545.45;105828;1254;72900;-45
2023/11/13 08:10:48;;;;;;;19.10;8.90;;;;;;;-147.86;100.00;48516.43;105859;1254;59625;-44
2023/11/13 08:13:16;;;;;;;33.40;10.70;;;;;;;-147.86;100.00;48510.55;105916;1256;59537;-44
2023/11/13 08:15:44;;;;;;;20.00;9.50;;;;;;;-147.86;100.00;48498.00;105918;1251;71774;-43
2023/11/13 08:18:15;;;;;;;37.90;10.80;;;;;;;-147.86;100.00;48468.98;105874;1253;65262;-44
2023/11/13 08:20:43;;;;;;;49.20;11.60;;;;;;;-147.86;100.00;48465.84;105861;1251;73421;-44
2023/11/13 08:23:15;;;;;;;24.60;9.10;;;;;;;-147.86;100.00;48467.81;105867;1257;60453;-46
2023/11/13 08:25:44;;;;;;;24.00;9.10;;;;;;;-147.86;100.00;48468.20;105854;1254;59698;-45
2023/11/13 08:28:12;;;;;;;16.00;8.70;;;;;;;-147.86;100.00;48449.38;105890;1254;73092;-44
2023/11/13 08:30:46;;;;;;;15.10;8.10;;;;;;;-147.86;100.00;48428.60;105864;1253;65527;-46
2023/11/13 08:33:14;;;;;;;23.70;8.60;;;;;;;-147.86;100.00;48423.89;105842;1256;72587;-44
2023/11/13 08:35:41;;;;;;;17.60;8.80;;;;;;;-147.86;100.00;48428.99;105902;1257;60405;-43
2023/11/13 08:38:11;;;;;;;16.90;8.10;;;;;;;-147.86;100.00;48434.48;105897;1254;60397;-47
2023/11/13 08:40:39;;;;;;;13.80;8.10;;;;;;;-147.86;100.00;48451.73;105753;1251;72266;-46
2023/11/13 08:43:10;;;;;;;32.10;9.70;;;;;;;-147.86;100.00;48435.65;105941;1253;64032;-45
2023/11/13 08:45:40;;;;;;;41.80;9.50;;;;;;;-147.86;100.00;48457.22;105908;1258;71740;-44
2023/11/13 08:48:27;;;;;;;19.80;8.30;;;;;;;-147.86;100.00;48434.87;105839;1254;61597;-45
2023/11/13 08:50:59;;;;;;;21.60;8.30;;;;;;;-147.86;100.00;48451.73;105871;1253;61516;-45
2023/11/13 08:53:29;;;;;;;20.70;9.00;;;;;;;-147.86;100.00;48448.20;105887;1257;73782;-45
2023/11/13 08:55:59;;;;;;;45.00;10.50;;;;;;;-147.86;100.00;48431.34;105890;1254;65895;-44
2023/11/13 08:58:28;;;;;;;69.10;11.60;;;;;;;-147.86;100.00;48445.46;105911;1253;73006;-45
2023/11/13 09:00:56;;;;;;;52.10;9.50;;;;;;;-147.86;100.00;48453.30;105855;1254;60395;-45
2023/11/13 09:03:29;;;;;;;43.30;10.60;;;;;;;-147.86;100.00;48447.80;105918;1253;59538;-45
2023/11/13 09:05:58;;;;;;;30.90;8.50;;;;;;;-147.86;100.00;48440.36;105858;1253;72981;-45
2023/11/13 09:08:27;;;;;;;13.90;8.30;;;;;;;-147.86;100.00;48437.61;105903;1254;64081;-45
2023/11/13 09:10:55;;;;;;;33.50;9.20;;;;;;;-147.86;100.00;48435.26;105884;1254;71694;-43
2023/11/13 09:13:24;;;;;;;26.90;8.00;;;;;;;-147.86;100.00;48413.70;105878;1257;60393;-45
2023/11/13 09:15:53;;;;;;;37.10;9.00;;;;;;;-147.86;100.00;48405.85;105903;1251;60685;-46
2023/11/13 09:18:26;;;;;;;21.00;8.40;;;;;;;-147.86;100.00;48414.48;105855;1253;71806;-50
2023/11/13 09:20:55;;;;;;;27.90;9.20;;;;;;;-147.86;100.00;48397.62;105904;1253;63879;-44
2023/11/13 09:23:23;;;;;;;13.30;7.70;;;;;;;-147.86;100.00;48396.05;105698;1252;72682;-48
2023/11/13 09:25:50;;;;;;;17.40;7.50;;;;;;;-147.86;100.00;48403.51;105701;1257;60518;-44
2023/11/13 09:28:19;;;;;;;23.20;8.10;;;;;;;-147.86;100.00;48389.00;105708;1251;60435;-46
2023/11/13 09:30:46;;;;;;;39.80;8.10;;;;;;;-147.86;100.00;48395.66;105626;1254;72536;-42
2023/11/13 09:33:16;;;;;;;40.00;9.40;;;;;;;-147.86;100.00;48386.25;105904;1257;65108;-42
2023/11/13 09:35:46;;;;;;;13.30;6.10;;;;;;;-147.86;100.00;48390.57;105897;1254;73094;-50
2023/11/13 09:38:15;;;;;;;24.50;7.00;;;;;;;-147.86;100.00;48394.09;105748;1257;61882;-44
2023/11/13 09:40:43;;;;;;;37.50;7.50;;;;;;;-147.86;100.00;48359.98;105905;1253;60770;-49
2023/11/13 09:43:31;;;;;;;18.50;6.00;;;;;;;-147.86;100.00;48360.37;105863;1257;72816;-50
2023/11/13 09:46:08;;;;;;;32.00;6.30;;;;;;;-147.86;100.00;48367.04;105851;1257;66256;-46
2023/11/13 09:48:50;;;;;;;31.40;6.40;;;;;;;-147.86;100.00;48357.63;105852;1253;70401;-45
2023/11/13 09:51:17;;;;;;;32.30;7.10;;;;;;;-147.86;100.00;48351.74;105854;1257;60636;-45
2023/11/13 09:53:58;;;;;;;13.00;5.50;;;;;;;-147.86;100.00;48335.27;105836;1253;60446;-46
2023/11/13 09:56:28;;;;;;;19.70;5.10;;;;;;;-147.86;100.00;48355.66;105860;1253;72569;-45
2023/11/13 09:58:57;;;;;;;8.10;5.30;;;;;;;-147.86;100.00;48363.90;105875;1256;64141;-45
2023/11/13 10:01:25;;;;;;;6.70;4.90;;;;;;;-147.86;100.00;48347.04;105913;1255;73198;-44
2023/11/13 10:03:54;;;;;;;6.20;4.40;;;;;;;-147.86;100.00;48338.80;105852;1253;60556;-44
2023/11/13 10:06:21;;;;;;;7.30;3.70;;;;;;;-147.86;84.50;48334.50;105881;1256;60452;-45
2023/11/13 10:08:51;;;;;;;6.10;3.80;;;;;;;-147.86;66.27;48348.22;105713;1253;72892;-46
2023/11/13 10:11:19;;;;;;;5.50;3.40;;;;;;;-147.86;64.87;48340.77;105754;1252;64034;-46
2023/11/13 10:13:47;;;;;;;6.90;3.70;;;;;;;-147.86;60.77;48357.24;105881;1256;70838;-45
2023/11/13 10:16:18;;;;;;;3.30;2.90;;;;;;;-147.86;60.24;48346.65;105741;1257;61922;-48
2023/11/13 10:18:46;;;;;;;4.20;2.90;;;;;;;-147.86;58.52;48353.71;105888;1253;60537;-44
2023/11/13 10:21:21;;;;;;;3.20;2.80;;;;;;;-147.86;57.47;48353.71;105880;1256;73513;-43
2023/11/13 10:23:49;;;;;;;4.70;2.70;;;;;;;-147.86;56.06;48342.73;105707;1258;64892;-44
2023/11/13 10:26:25;;;;;;;3.60;3.00;;;;;;;-147.86;55.86;48353.71;105649;1257;70841;-46
2023/11/13 10:28:53;;;;;;;3.40;3.00;;;;;;;-147.86;55.51;48345.87;105826;1258;60562;-43
2023/11/13 10:31:23;;;;;;;3.00;2.50;;;;;;;-147.86;55.22;48352.93;105718;1254;60363;-45
2023/11/13 10:33:59;;;;;;;4.40;3.00;;;;;;;-147.86;53.60;48349.79;105751;1257;73808;-44
2023/11/13 10:36:28;;;;;;;4.10;2.80;;;;;;;-147.86;54.41;48350.96;105751;1253;64662;-42
2023/11/13 10:39:00;;;;;;;8.10;2.20;;;;;;;-147.86;54.08;48337.63;105703;1253;72475;-43
2023/11/13 10:41:30;;;;;;;2.50;2.30;;;;;;;-147.86;54.52;48367.43;105646;1253;60412;-43
2023/11/13 10:43:58;;;;;;;2.30;2.10;;;;;;;-147.86;55.04;48359.59;105902;1254;60530;-46
2023/11/13 10:46:27;;;;;;;2.70;2.50;;;;;;;-147.86;53.09;48354.49;105803;1252;73480;-44
2023/11/13 10:48:56;;;;;;;2.70;2.10;;;;;;;-147.86;52.51;48358.02;105615;1254;65391;-44
2023/11/13 10:51:28;;;;;;;4.80;2.80;;;;;;;-147.86;52.20;48361.55;105727;1257;74487;-47
2023/11/13 10:53:56;;;;;;;5.80;2.80;;;;;;;-147.86;53.04;48337.63;105764;1253;60936;-44
2023/11/13 10:56:25;;;;;;;2.70;2.40;;;;;;;-147.86;53.19;48361.55;105718;1253;60508;-42
2023/11/13 10:58:53;;;;;;;7.90;2.30;;;;;;;-147.86;53.84;48364.69;105684;1254;74412;-43
2023/11/13 11:01:27;;;;;;;2.40;2.20;;;;;;;-147.86;53.51;48339.99;105722;1255;64681;-42
2023/11/13 11:03:58;;;;;;;2.30;2.10;;;;;;;-147.86;51.80;48336.06;105874;1256;72527;-42